sensor_id;sensor_type;location;lat;lon;timestamp;pressure;altitude;pressure_sealevel;temperature;humidity
7660;BME280;3872;47.902;8.162;2023-04-16T00:00:05;91774.09;;;7.41;100.00
7660;BME280;3872;47.902;8.162;2023-04-16T00:02:38;91760.78;;;8.33;100.00
7660;BME280;3872;47.902;8.162;2023-04-16T00:05:05;91776.97;;;7.93;100.00
7660;BME280;3872;47.902;8.162;2023-04-16T00:07:32;91772.13;;;7.28;100.00
7660;BME280;3872;47.902;8.162;2023-04-16T00:10:00;91766.84;;;8.10;100.00
7660;BME280;3872;47.902;8.162;2023-04-16T00:12:26;91761.66;;;8.47;100.00
7660;BME280;3872;47.902;8.162;2023-04-16T00:14:53;91759.63;;;8.20;100.00
7660;BME280;3872;47.902;8.162;2023-04-16T00:17:19;91766.84;;;7.33;100.00
7660;BME280;3872;47.902;8.162;2023-04-16T00:19:46;91758.75;;;8.49;100.00
7660;BME280;3872;47.902;8.162;2023-04-16T00:22:12;91760.75;;;8.14;100.00
7660;BME280;3872;47.902;8.162;2023-04-16T00:24:39;91765.41;;;8.41;100.00
7660;BME280;3872;47.902;8.162;2023-04-16T00:27:07;91775.28;;;7.54;100.00
7660;BME280;3872;47.902;8.162;2023-04-16T00:29:33;91766.16;;;7.52;100.00
7660;BME280;3872;47.902;8.162;2023-04-16T00:32:00;91762.06;;;8.36;100.00
7660;BME280;3872;47.902;8.162;2023-04-16T00:34:27;91774.63;;;7.43;100.00
7660;BME280;3872;47.902;8.162;2023-04-16T00:36:53;91765.56;;;8.50;100.00
7660;BME280;3872;47.902;8.162;2023-04-16T00:39:20;91761.72;;;8.18;100.00
7660;BME280;3872;47.902;8.162;2023-04-16T00:41:46;91767.78;;;7.95;100.00
7660;BME280;3872;47.902;8.162;2023-04-16T00:44:14;91763.91;;;8.35;100.00
7660;BME280;3872;47.902;8.162;2023-04-16T00:46:41;91768.88;;;8.74;100.00
7660;BME280;3872;47.902;8.162;2023-04-16T00:49:08;91774.63;;;8.57;100.00
7660;BME280;3872;47.902;8.162;2023-04-16T00:51:35;91770.72;;;8.36;100.00
7660;BME280;3872;47.902;8.162;2023-04-16T00:54:02;91772.84;;;8.34;100.00
7660;BME280;3872;47.902;8.162;2023-04-16T00:56:30;91769.66;;;8.93;100.00
7660;BME280;3872;47.902;8.162;2023-04-16T00:58:57;91769.09;;;8.40;100.00
7660;BME280;3872;47.902;8.162;2023-04-16T01:01:25;91769.66;;;8.56;100.00
7660;BME280;3872;47.902;8.162;2023-04-16T01:03:53;91775.75;;;8.33;100.00
7660;BME280;3872;47.902;8.162;2023-04-16T01:06:20;91772.28;;;8.75;100.00
7660;BME280;3872;47.902;8.162;2023-04-16T01:08:46;91772.84;;;8.34;100.00
7660;BME280;3872;47.902;8.162;2023-04-16T01:11:13;91768.75;;;7.80;100.00
7660;BME280;3872;47.902;8.162;2023-04-16T01:13:40;91774.00;;;7.75;100.00
7660;BME280;3872;47.902;8.162;2023-04-16T01:16:08;91772.97;;;8.00;100.00
7660;BME280;3872;47.902;8.162;2023-04-16T01:18:37;91772.94;;;8.85;100.00
7660;BME280;3872;47.902;8.162;2023-04-16T01:21:05;91773.28;;;8.79;100.00
7660;BME280;3872;47.902;8.162;2023-04-16T01:23:32;91783.13;;;8.49;100.00
7660;BME280;3872;47.902;8.162;2023-04-16T01:25:58;91776.84;;;8.26;100.00
7660;BME280;3872;47.902;8.162;2023-04-16T01:28:25;91779.94;;;7.86;100.00
7660;BME280;3872;47.902;8.162;2023-04-16T01:30:52;91772.78;;;8.77;100.00
7660;BME280;3872;47.902;8.162;2023-04-16T01:33:32;91775.16;;;9.11;100.00
7660;BME280;3872;47.902;8.162;2023-04-16T01:35:58;91778.94;;;9.04;100.00
7660;BME280;3872;47.902;8.162;2023-04-16T01:38:26;91767.22;;;8.22;100.00
7660;BME280;3872;47.902;8.162;2023-04-16T01:40:54;91786.00;;;8.05;100.00
7660;BME280;3872;47.902;8.162;2023-04-16T01:43:21;91787.28;;;8.32;100.00
7660;BME280;3872;47.902;8.162;2023-04-16T01:45:48;91787.41;;;8.21;100.00
7660;BME280;3872;47.902;8.162;2023-04-16T01:48:14;91783.06;;;8.36;100.00
7660;BME280;3872;47.902;8.162;2023-04-16T01:50:41;91786.91;;;8.81;100.00
7660;BME280;3872;47.902;8.162;2023-04-16T01:53:08;91780.50;;;9.06;100.00
7660;BME280;3872;47.902;8.162;2023-04-16T01:55:36;91786.53;;;8.87;100.00
7660;BME280;3872;47.902;8.162;2023-04-16T01:58:02;91785.66;;;9.11;100.00
7660;BME280;3872;47.902;8.162;2023-04-16T02:00:32;91781.13;;;9.16;100.00
7660;BME280;3872;47.902;8.162;2023-04-16T02:02:59;91791.22;;;8.72;100.00
7660;BME280;3872;47.902;8.162;2023-04-16T02:05:27;91791.84;;;8.63;100.00
7660;BME280;3872;47.902;8.162;2023-04-16T02:07:53;91786.44;;;9.11;100.00
7660;BME280;3872;47.902;8.162;2023-04-16T02:10:20;91789.16;;;9.06;100.00
7660;BME280;3872;47.902;8.162;2023-04-16T02:12:48;91793.28;;;8.56;100.00
7660;BME280;3872;47.902;8.162;2023-04-16T02:15:15;91796.34;;;7.68;100.00
7660;BME280;3872;47.902;8.162;2023-04-16T02:17:42;91792.22;;;8.57;100.00
7660;BME280;3872;47.902;8.162;2023-04-16T02:20:11;91787.59;;;8.86;100.00
7660;BME280;3872;47.902;8.162;2023-04-16T02:22:46;91795.75;;;7.52;100.00
7660;BME280;3872;47.902;8.162;2023-04-16T02:25:16;91798.22;;;7.91;100.00
7660;BME280;3872;47.902;8.162;2023-04-16T02:27:42;91794.09;;;8.09;100.00
7660;BME280;3872;47.902;8.162;2023-04-16T02:30:23;91802.00;;;8.27;100.00
7660;BME280;3872;47.902;8.162;2023-04-16T02:32:50;91794.06;;;8.75;100.00
7660;BME280;3872;47.902;8.162;2023-04-16T02:35:18;91794.69;;;8.48;100.00
7660;BME280;3872;47.902;8.162;2023-04-16T02:37:44;91804.88;;;8.26;100.00
7660;BME280;3872;47.902;8.162;2023-04-16T02:40:11;91795.91;;;8.93;100.00
7660;BME280;3872;47.902;8.162;2023-04-16T02:42:37;91802.44;;;8.58;100.00
7660;BME280;3872;47.902;8.162;2023-04-16T02:45:05;91809.25;;;7.64;100.00
7660;BME280;3872;47.902;8.162;2023-04-16T02:47:34;91801.22;;;8.70;100.00
7660;BME280;3872;47.902;8.162;2023-04-16T02:50:01;91800.66;;;8.30;100.00
7660;BME280;3872;47.902;8.162;2023-04-16T02:52:28;91800.91;;;7.86;100.00
7660;BME280;3872;47.902;8.162;2023-04-16T02:54:56;91802.75;;;7.57;100.00
7660;BME280;3872;47.902;8.162;2023-04-16T02:57:22;91801.13;;;7.66;100.00
7660;BME280;3872;47.902;8.162;2023-04-16T02:59:49;91798.72;;;8.41;100.00
7660;BME280;3872;47.902;8.162;2023-04-16T03:02:16;91796.38;;;8.15;100.00
7660;BME280;3872;47.902;8.162;2023-04-16T03:04:44;91805.75;;;7.98;100.00
7660;BME280;3872;47.902;8.162;2023-04-16T03:07:10;91798.19;;;8.39;100.00
7660;BME280;3872;47.902;8.162;2023-04-16T03:09:38;91803.63;;;7.76;100.00
7660;BME280;3872;47.902;8.162;2023-04-16T03:12:04;91801.28;;;7.98;100.00
7660;BME280;3872;47.902;8.162;2023-04-16T03:14:31;91797.53;;;8.04;100.00
7660;BME280;3872;47.902;8.162;2023-04-16T03:16:58;91797.13;;;7.44;100.00
7660;BME280;3872;47.902;8.162;2023-04-16T03:19:24;91793.00;;;8.57;100.00
7660;BME280;3872;47.902;8.162;2023-04-16T03:21:52;91792.22;;;7.04;100.00
7660;BME280;3872;47.902;8.162;2023-04-16T03:24:18;91793.19;;;8.18;100.00
7660;BME280;3872;47.902;8.162;2023-04-16T03:26:47;91792.09;;;7.48;100.00
7660;BME280;3872;47.902;8.162;2023-04-16T03:29:14;91789.91;;;8.32;100.00
7660;BME280;3872;47.902;8.162;2023-04-16T03:31:41;91800.50;;;7.74;100.00
7660;BME280;3872;47.902;8.162;2023-04-16T03:34:07;91795.47;;;8.86;100.00
7660;BME280;3872;47.902;8.162;2023-04-16T03:36:34;91796.00;;;8.46;100.00
7660;BME280;3872;47.902;8.162;2023-04-16T03:39:02;91795.75;;;8.47;100.00
7660;BME280;3872;47.902;8.162;2023-04-16T03:41:29;91808.06;;;8.47;100.00
7660;BME280;3872;47.902;8.162;2023-04-16T03:43:55;91806.69;;;7.83;100.00
7660;BME280;3872;47.902;8.162;2023-04-16T03:46:22;91805.91;;;8.06;100.00
7660;BME280;3872;47.902;8.162;2023-04-16T03:48:49;91807.50;;;8.50;100.00
7660;BME280;3872;47.902;8.162;2023-04-16T03:51:16;91807.44;;;7.02;100.00
7660;BME280;3872;47.902;8.162;2023-04-16T03:53:42;91811.25;;;7.15;100.00
7660;BME280;3872;47.902;8.162;2023-04-16T03:56:10;91803.75;;;8.56;100.00
7660;BME280;3872;47.902;8.162;2023-04-16T03:58:37;91818.47;;;8.33;100.00
7660;BME280;3872;47.902;8.162;2023-04-16T04:01:03;91808.09;;;8.66;100.00
7660;BME280;3872;47.902;8.162;2023-04-16T04:03:30;91813.84;;;8.01;100.00
7660;BME280;3872;47.902;8.162;2023-04-16T04:05:56;91808.28;;;7.55;100.00
7660;BME280;3872;47.902;8.162;2023-04-16T04:08:27;91803.16;;;8.40;100.00
7660;BME280;3872;47.902;8.162;2023-04-16T04:10:53;91803.63;;;8.66;100.00
7660;BME280;3872;47.902;8.162;2023-04-16T04:13:23;91799.09;;;9.09;100.00
7660;BME280;3872;47.902;8.162;2023-04-16T04:15:50;91806.00;;;9.37;100.00
7660;BME280;3872;47.902;8.162;2023-04-16T04:18:17;91810.34;;;9.28;100.00
7660;BME280;3872;47.902;8.162;2023-04-16T04:20:44;91810.69;;;9.54;100.00
7660;BME280;3872;47.902;8.162;2023-04-16T04:23:13;91819.28;;;8.52;100.00
7660;BME280;3872;47.902;8.162;2023-04-16T04:25:40;91823.75;;;7.80;100.00
7660;BME280;3872;47.902;8.162;2023-04-16T04:28:07;91821.09;;;7.57;100.00
7660;BME280;3872;47.902;8.162;2023-04-16T04:30:34;91829.91;;;7.66;100.00
7660;BME280;3872;47.902;8.162;2023-04-16T04:33:01;91826.44;;;8.47;100.00
7660;BME280;3872;47.902;8.162;2023-04-16T04:35:27;91830.38;;;8.20;100.00
7660;BME280;3872;47.902;8.162;2023-04-16T04:37:56;91830.88;;;8.46;100.00
7660;BME280;3872;47.902;8.162;2023-04-16T04:40:22;91827.63;;;7.83;100.00
7660;BME280;3872;47.902;8.162;2023-04-16T04:42:51;91833.47;;;7.75;100.00
7660;BME280;3872;47.902;8.162;2023-04-16T04:45:20;91828.56;;;8.21;100.00
7660;BME280;3872;47.902;8.162;2023-04-16T04:47:52;91842.69;;;7.96;100.00
7660;BME280;3872;47.902;8.162;2023-04-16T04:50:20;91838.31;;;8.39;100.00
7660;BME280;3872;47.902;8.162;2023-04-16T04:52:46;91843.13;;;6.83;100.00
7660;BME280;3872;47.902;8.162;2023-04-16T04:55:13;91842.50;;;7.01;100.00
7660;BME280;3872;47.902;8.162;2023-04-16T04:57:41;91840.31;;;8.00;100.00
7660;BME280;3872;47.902;8.162;2023-04-16T05:00:09;91846.91;;;8.21;100.00
7660;BME280;3872;47.902;8.162;2023-04-16T05:02:41;91848.06;;;7.86;100.00
7660;BME280;3872;47.902;8.162;2023-04-16T05:05:09;91854.44;;;7.46;100.00
7660;BME280;3872;47.902;8.162;2023-04-16T05:07:36;91858.53;;;7.57;100.00
7660;BME280;3872;47.902;8.162;2023-04-16T05:10:03;91848.72;;;7.39;100.00
7660;BME280;3872;47.902;8.162;2023-04-16T05:12:29;91858.88;;;7.74;100.00
7660;BME280;3872;47.902;8.162;2023-04-16T05:14:56;91865.69;;;6.74;100.00
7660;BME280;3872;47.902;8.162;2023-04-16T05:17:22;91853.94;;;8.02;100.00
7660;BME280;3872;47.902;8.162;2023-04-16T05:19:50;91871.00;;;7.02;100.00
7660;BME280;3872;47.902;8.162;2023-04-16T05:22:18;91861.16;;;7.86;100.00
7660;BME280;3872;47.902;8.162;2023-04-16T05:24:45;91863.44;;;7.35;100.00
7660;BME280;3872;47.902;8.162;2023-04-16T05:27:11;91863.19;;;7.65;100.00
7660;BME280;3872;47.902;8.162;2023-04-16T05:29:38;91856.84;;;8.24;100.00
7660;BME280;3872;47.902;8.162;2023-04-16T05:32:05;91863.66;;;8.49;100.00
7660;BME280;3872;47.902;8.162;2023-04-16T05:34:31;91875.31;;;7.85;100.00
7660;BME280;3872;47.902;8.162;2023-04-16T05:36:57;91860.13;;;7.53;100.00
7660;BME280;3872;47.902;8.162;2023-04-16T05:39:26;91874.53;;;7.84;100.00
7660;BME280;3872;47.902;8.162;2023-04-16T05:41:53;91877.97;;;7.80;100.00
7660;BME280;3872;47.902;8.162;2023-04-16T05:44:19;91876.47;;;8.03;100.00
7660;BME280;3872;47.902;8.162;2023-04-16T05:46:46;91872.66;;;7.27;100.00
7660;BME280;3872;47.902;8.162;2023-04-16T05:49:12;91876.50;;;8.21;100.00
7660;BME280;3872;47.902;8.162;2023-04-16T05:51:39;91875.50;;;8.17;100.00
7660;BME280;3872;47.902;8.162;2023-04-16T05:54:06;91891.09;;;8.33;100.00
7660;BME280;3872;47.902;8.162;2023-04-16T05:56:34;91882.84;;;8.44;100.00
7660;BME280;3872;47.902;8.162;2023-04-16T05:59:00;91891.53;;;8.16;100.00
7660;BME280;3872;47.902;8.162;2023-04-16T06:01:27;91895.19;;;8.44;100.00
7660;BME280;3872;47.902;8.162;2023-04-16T06:03:53;91896.84;;;7.77;100.00
7660;BME280;3872;47.902;8.162;2023-04-16T06:06:20;91900.41;;;8.68;100.00
7660;BME280;3872;47.902;8.162;2023-04-16T06:08:46;91903.84;;;7.58;100.00
7660;BME280;3872;47.902;8.162;2023-04-16T06:11:13;91905.22;;;8.37;100.00
7660;BME280;3872;47.902;8.162;2023-04-16T06:13:41;91905.28;;;8.74;100.00
7660;BME280;3872;47.902;8.162;2023-04-16T06:16:07;91900.91;;;8.46;100.00
7660;BME280;3872;47.902;8.162;2023-04-16T06:18:34;91900.78;;;8.32;100.00
7660;BME280;3872;47.902;8.162;2023-04-16T06:21:01;91901.53;;;8.61;100.00
7660;BME280;3872;47.902;8.162;2023-04-16T06:23:28;91907.63;;;8.99;100.00
7660;BME280;3872;47.902;8.162;2023-04-16T06:25:55;91906.13;;;9.12;100.00
7660;BME280;3872;47.902;8.162;2023-04-16T06:28:21;91903.34;;;8.85;100.00
7660;BME280;3872;47.902;8.162;2023-04-16T06:30:49;91913.47;;;8.73;100.00
7660;BME280;3872;47.902;8.162;2023-04-16T06:33:16;91905.78;;;9.19;100.00
7660;BME280;3872;47.902;8.162;2023-04-16T06:35:42;91914.53;;;8.48;100.00
7660;BME280;3872;47.902;8.162;2023-04-16T06:38:09;91916.06;;;8.25;100.00
7660;BME280;3872;47.902;8.162;2023-04-16T06:40:35;91912.28;;;8.60;100.00
7660;BME280;3872;47.902;8.162;2023-04-16T06:43:02;91924.19;;;8.52;100.00
7660;BME280;3872;47.902;8.162;2023-04-16T06:45:28;91919.06;;;7.84;100.00
7660;BME280;3872;47.902;8.162;2023-04-16T06:47:57;91923.63;;;8.32;100.00
7660;BME280;3872;47.902;8.162;2023-04-16T06:50:24;91929.00;;;7.54;100.00
7660;BME280;3872;47.902;8.162;2023-04-16T06:52:51;91933.13;;;8.22;100.00
7660;BME280;3872;47.902;8.162;2023-04-16T06:55:17;91931.22;;;8.81;100.00
7660;BME280;3872;47.902;8.162;2023-04-16T06:57:44;91933.91;;;7.60;100.00
7660;BME280;3872;47.902;8.162;2023-04-16T07:00:11;91930.00;;;7.92;100.00
7660;BME280;3872;47.902;8.162;2023-04-16T07:02:37;91930.03;;;8.68;100.00
7660;BME280;3872;47.902;8.162;2023-04-16T07:05:06;91933.28;;;9.02;100.00
7660;BME280;3872;47.902;8.162;2023-04-16T07:07:33;91932.38;;;8.93;100.00
7660;BME280;3872;47.902;8.162;2023-04-16T07:09:59;91932.22;;;8.85;100.00
7660;BME280;3872;47.902;8.162;2023-04-16T07:12:26;91924.81;;;8.15;100.00
7660;BME280;3872;47.902;8.162;2023-04-16T07:14:53;91930.88;;;9.25;100.00
7660;BME280;3872;47.902;8.162;2023-04-16T07:17:20;91925.47;;;8.55;100.00
7660;BME280;3872;47.902;8.162;2023-04-16T07:19:46;91929.00;;;8.45;100.00
7660;BME280;3872;47.902;8.162;2023-04-16T07:22:14;91937.00;;;8.78;100.00
7660;BME280;3872;47.902;8.162;2023-04-16T07:24:41;91932.22;;;9.03;100.00
7660;BME280;3872;47.902;8.162;2023-04-16T07:27:07;91938.91;;;8.72;100.00
7660;BME280;3872;47.902;8.162;2023-04-16T07:29:34;91938.59;;;8.97;100.00
7660;BME280;3872;47.902;8.162;2023-04-16T07:32:00;91946.13;;;7.75;100.00
7660;BME280;3872;47.902;8.162;2023-04-16T07:34:27;91941.72;;;7.99;100.00
7660;BME280;3872;47.902;8.162;2023-04-16T07:36:53;91939.19;;;8.18;100.00
7660;BME280;3872;47.902;8.162;2023-04-16T07:39:21;91949.63;;;7.94;100.00
7660;BME280;3872;47.902;8.162;2023-04-16T07:41:48;91941.75;;;8.76;100.00
7660;BME280;3872;47.902;8.162;2023-04-16T07:44:14;91942.25;;;8.01;100.00
7660;BME280;3872;47.902;8.162;2023-04-16T07:46:40;91941.22;;;8.26;100.00
7660;BME280;3872;47.902;8.162;2023-04-16T07:49:07;91941.44;;;8.30;100.00
7660;BME280;3872;47.902;8.162;2023-04-16T07:51:33;91954.34;;;7.24;100.00
7660;BME280;3872;47.902;8.162;2023-04-16T07:54:00;91956.41;;;7.66;100.00
7660;BME280;3872;47.902;8.162;2023-04-16T07:56:28;91954.94;;;7.06;100.00
7660;BME280;3872;47.902;8.162;2023-04-16T07:58:55;91956.88;;;7.73;100.00
7660;BME280;3872;47.902;8.162;2023-04-16T08:01:21;91958.56;;;7.54;100.00
7660;BME280;3872;47.902;8.162;2023-04-16T08:03:48;91954.72;;;8.43;100.00
7660;BME280;3872;47.902;8.162;2023-04-16T08:06:14;91965.84;;;7.62;100.00
7660;BME280;3872;47.902;8.162;2023-04-16T08:08:41;91967.97;;;7.60;100.00
7660;BME280;3872;47.902;8.162;2023-04-16T08:11:07;91960.69;;;8.49;100.00
7660;BME280;3872;47.902;8.162;2023-04-16T08:13:35;91969.44;;;7.37;100.00
7660;BME280;3872;47.902;8.162;2023-04-16T08:16:02;91970.63;;;7.55;100.00
7660;BME280;3872;47.902;8.162;2023-04-16T08:18:29;91966.94;;;8.24;100.00
7660;BME280;3872;47.902;8.162;2023-04-16T08:20:55;91969.34;;;8.49;100.00
7660;BME280;3872;47.902;8.162;2023-04-16T08:23:22;91983.03;;;7.78;100.00
7660;BME280;3872;47.902;8.162;2023-04-16T08:25:48;91981.44;;;8.11;100.00
7660;BME280;3872;47.902;8.162;2023-04-16T08:28:15;91989.44;;;7.96;100.00
7660;BME280;3872;47.902;8.162;2023-04-16T08:30:43;91986.84;;;7.13;100.00
7660;BME280;3872;47.902;8.162;2023-04-16T08:33:10;91990.16;;;7.73;100.00
7660;BME280;3872;47.902;8.162;2023-04-16T08:35:38;91995.94;;;7.70;100.00
7660;BME280;3872;47.902;8.162;2023-04-16T08:38:05;92000.66;;;7.68;100.00
7660;BME280;3872;47.902;8.162;2023-04-16T08:40:34;91994.97;;;7.06;100.00
7660;BME280;3872;47.902;8.162;2023-04-16T08:43:05;91996.34;;;7.82;100.00
7660;BME280;3872;47.902;8.162;2023-04-16T08:45:35;91997.38;;;7.52;100.00
7660;BME280;3872;47.902;8.162;2023-04-16T08:48:04;91995.16;;;8.61;100.00
7660;BME280;3872;47.902;8.162;2023-04-16T08:50:31;91996.81;;;8.81;100.00
7660;BME280;3872;47.902;8.162;2023-04-16T08:53:02;92002.47;;;9.12;100.00
7660;BME280;3872;47.902;8.162;2023-04-16T08:55:33;92002.47;;;7.72;100.00
7660;BME280;3872;47.902;8.162;2023-04-16T08:58:03;92003.88;;;9.04;100.00
7660;BME280;3872;47.902;8.162;2023-04-16T09:00:32;91995.28;;;8.51;100.00
7660;BME280;3872;47.902;8.162;2023-04-16T09:02:59;92000.47;;;8.56;100.00
7660;BME280;3872;47.902;8.162;2023-04-16T09:05:28;92008.78;;;8.63;100.00
7660;BME280;3872;47.902;8.162;2023-04-16T09:07:54;92008.97;;;8.14;100.00
7660;BME280;3872;47.902;8.162;2023-04-16T09:10:21;92019.38;;;7.51;100.00
7660;BME280;3872;47.902;8.162;2023-04-16T09:12:48;92011.03;;;8.98;100.00
7660;BME280;3872;47.902;8.162;2023-04-16T09:15:15;92028.31;;;7.84;100.00
7660;BME280;3872;47.902;8.162;2023-04-16T09:17:41;92019.28;;;8.34;100.00
7660;BME280;3872;47.902;8.162;2023-04-16T09:20:08;92024.81;;;8.61;100.00
7660;BME280;3872;47.902;8.162;2023-04-16T09:22:38;92021.13;;;8.62;100.00
7660;BME280;3872;47.902;8.162;2023-04-16T09:25:05;92030.59;;;8.30;100.00
7660;BME280;3872;47.902;8.162;2023-04-16T09:27:32;92024.06;;;7.93;100.00
7660;BME280;3872;47.902;8.162;2023-04-16T09:29:59;92023.69;;;8.39;100.00
7660;BME280;3872;47.902;8.162;2023-04-16T09:32:26;92019.25;;;8.39;100.00
7660;BME280;3872;47.902;8.162;2023-04-16T09:34:54;92012.53;;;8.57;100.00
7660;BME280;3872;47.902;8.162;2023-04-16T09:37:21;92026.31;;;8.39;100.00
7660;BME280;3872;47.902;8.162;2023-04-16T09:39:55;92033.69;;;8.03;100.00
7660;BME280;3872;47.902;8.162;2023-04-16T09:42:23;92026.53;;;7.79;100.00
7660;BME280;3872;47.902;8.162;2023-04-16T09:44:51;92031.88;;;7.98;100.00
7660;BME280;3872;47.902;8.162;2023-04-16T09:47:19;92026.03;;;8.45;100.00
7660;BME280;3872;47.902;8.162;2023-04-16T09:49:45;92031.66;;;8.29;100.00
7660;BME280;3872;47.902;8.162;2023-04-16T09:52:12;92033.84;;;7.77;100.00
7660;BME280;3872;47.902;8.162;2023-04-16T09:54:45;92034.84;;;8.20;100.00
7660;BME280;3872;47.902;8.162;2023-04-16T09:57:13;92037.13;;;7.98;100.00
7660;BME280;3872;47.902;8.162;2023-04-16T09:59:40;92039.25;;;8.30;100.00
7660;BME280;3872;47.902;8.162;2023-04-16T10:02:07;92040.13;;;8.49;100.00
7660;BME280;3872;47.902;8.162;2023-04-16T10:04:44;92046.34;;;7.91;100.00
7660;BME280;3872;47.902;8.162;2023-04-16T10:07:11;92044.03;;;7.84;100.00
7660;BME280;3872;47.902;8.162;2023-04-16T10:09:38;92038.66;;;8.91;100.00
7660;BME280;3872;47.902;8.162;2023-04-16T10:12:05;92043.13;;;8.38;100.00
7660;BME280;3872;47.902;8.162;2023-04-16T10:14:34;92041.81;;;8.93;100.00
7660;BME280;3872;47.902;8.162;2023-04-16T10:17:01;92043.69;;;9.54;100.00
7660;BME280;3872;47.902;8.162;2023-04-16T10:19:29;92054.13;;;8.40;100.00
7660;BME280;3872;47.902;8.162;2023-04-16T10:21:57;92051.19;;;8.99;100.00
7660;BME280;3872;47.902;8.162;2023-04-16T10:24:24;92056.13;;;7.75;100.00
7660;BME280;3872;47.902;8.162;2023-04-16T10:26:51;92053.69;;;7.44;100.00
7660;BME280;3872;47.902;8.162;2023-04-16T10:29:18;92052.88;;;8.27;100.00
7660;BME280;3872;47.902;8.162;2023-04-16T10:31:47;92060.69;;;7.98;100.00
7660;BME280;3872;47.902;8.162;2023-04-16T10:34:14;92056.34;;;7.89;100.00
7660;BME280;3872;47.902;8.162;2023-04-16T10:36:50;92058.63;;;7.51;100.00
7660;BME280;3872;47.902;8.162;2023-04-16T10:39:19;92061.97;;;8.06;100.00
7660;BME280;3872;47.902;8.162;2023-04-16T10:41:47;92063.00;;;7.66;100.00
7660;BME280;3872;47.902;8.162;2023-04-16T10:44:16;92071.88;;;7.21;100.00
7660;BME280;3872;47.902;8.162;2023-04-16T10:46:45;92071.19;;;7.54;100.00
7660;BME280;3872;47.902;8.162;2023-04-16T10:49:15;92073.59;;;7.45;100.00
7660;BME280;3872;47.902;8.162;2023-04-16T10:51:53;92073.69;;;7.74;100.00
7660;BME280;3872;47.902;8.162;2023-04-16T10:54:23;92080.78;;;7.74;100.00
7660;BME280;3872;47.902;8.162;2023-04-16T10:56:51;92074.25;;;7.71;100.00
7660;BME280;3872;47.902;8.162;2023-04-16T10:59:18;92063.88;;;7.95;100.00
7660;BME280;3872;47.902;8.162;2023-04-16T11:01:46;92061.06;;;7.86;100.00
7660;BME280;3872;47.902;8.162;2023-04-16T11:04:32;92067.38;;;7.80;100.00
7660;BME280;3872;47.902;8.162;2023-04-16T11:07:02;92064.81;;;7.16;100.00
7660;BME280;3872;47.902;8.162;2023-04-16T11:09:42;92068.78;;;7.63;100.00
7660;BME280;3872;47.902;8.162;2023-04-16T11:12:11;92074.34;;;7.46;100.00
7660;BME280;3872;47.902;8.162;2023-04-16T11:14:38;92062.69;;;8.11;100.00
7660;BME280;3872;47.902;8.162;2023-04-16T11:17:05;92063.31;;;8.95;100.00
7660;BME280;3872;47.902;8.162;2023-04-16T11:19:32;92059.94;;;8.37;100.00
7660;BME280;3872;47.902;8.162;2023-04-16T11:22:02;92071.06;;;7.74;100.00
7660;BME280;3872;47.902;8.162;2023-04-16T11:24:29;92060.34;;;9.25;100.00
7660;BME280;3872;47.902;8.162;2023-04-16T11:26:55;92062.75;;;8.98;100.00
7660;BME280;3872;47.902;8.162;2023-04-16T11:29:22;92058.63;;;9.16;100.00
7660;BME280;3872;47.902;8.162;2023-04-16T11:31:49;92056.41;;;8.75;100.00
7660;BME280;3872;47.902;8.162;2023-04-16T11:34:16;92056.38;;;9.70;100.00
7660;BME280;3872;47.902;8.162;2023-04-16T11:36:43;92064.41;;;9.79;100.00
7660;BME280;3872;47.902;8.162;2023-04-16T11:39:11;92063.94;;;8.87;100.00
7660;BME280;3872;47.902;8.162;2023-04-16T11:41:41;92067.53;;;8.91;100.00
7660;BME280;3872;47.902;8.162;2023-04-16T11:44:18;92055.28;;;9.53;100.00
7660;BME280;3872;47.902;8.162;2023-04-16T11:46:45;92058.56;;;9.63;100.00
7660;BME280;3872;47.902;8.162;2023-04-16T11:49:12;92059.50;;;9.91;100.00
7660;BME280;3872;47.902;8.162;2023-04-16T11:51:39;92060.28;;;8.83;100.00
7660;BME280;3872;47.902;8.162;2023-04-16T11:54:06;92063.63;;;9.97;100.00
7660;BME280;3872;47.902;8.162;2023-04-16T11:56:35;92072.16;;;8.75;100.00
7660;BME280;3872;47.902;8.162;2023-04-16T11:59:07;92083.94;;;8.49;100.00
7660;BME280;3872;47.902;8.162;2023-04-16T12:01:34;92071.00;;;9.10;100.00
7660;BME280;3872;47.902;8.162;2023-04-16T12:04:01;92078.41;;;9.08;100.00
7660;BME280;3872;47.902;8.162;2023-04-16T12:06:28;92076.50;;;9.37;100.00
7660;BME280;3872;47.902;8.162;2023-04-16T12:08:56;92083.16;;;8.77;100.00
7660;BME280;3872;47.902;8.162;2023-04-16T12:11:38;92080.94;;;8.26;100.00
7660;BME280;3872;47.902;8.162;2023-04-16T12:14:08;92084.78;;;8.39;100.00
7660;BME280;3872;47.902;8.162;2023-04-16T12:16:35;92092.38;;;7.58;100.00
7660;BME280;3872;47.902;8.162;2023-04-16T12:19:03;92082.56;;;8.22;100.00
7660;BME280;3872;47.902;8.162;2023-04-16T12:21:40;92092.34;;;8.80;100.00
7660;BME280;3872;47.902;8.162;2023-04-16T12:24:08;92093.22;;;9.65;100.00
7660;BME280;3872;47.902;8.162;2023-04-16T12:26:38;92094.00;;;10.03;100.00
7660;BME280;3872;47.902;8.162;2023-04-16T12:29:15;92096.66;;;10.03;100.00
7660;BME280;3872;47.902;8.162;2023-04-16T12:31:42;92103.97;;;8.97;100.00
7660;BME280;3872;47.902;8.162;2023-04-16T12:34:09;92104.19;;;9.01;100.00
7660;BME280;3872;47.902;8.162;2023-04-16T12:36:36;92110.28;;;8.34;100.00
7660;BME280;3872;47.902;8.162;2023-04-16T12:39:02;92110.31;;;8.91;100.00
7660;BME280;3872;47.902;8.162;2023-04-16T12:41:29;92122.88;;;7.88;100.00
7660;BME280;3872;47.902;8.162;2023-04-16T12:44:04;92121.16;;;8.12;100.00
7660;BME280;3872;47.902;8.162;2023-04-16T12:46:31;92113.38;;;7.47;100.00
7660;BME280;3872;47.902;8.162;2023-04-16T12:48:57;92116.25;;;8.00;100.00
7660;BME280;3872;47.902;8.162;2023-04-16T12:51:24;92117.75;;;7.62;100.00
7660;BME280;3872;47.902;8.162;2023-04-16T12:53:51;92114.81;;;8.57;100.00
7660;BME280;3872;47.902;8.162;2023-04-16T12:56:18;92108.69;;;8.95;100.00
7660;BME280;3872;47.902;8.162;2023-04-16T12:58:45;92107.72;;;9.15;100.00
7660;BME280;3872;47.902;8.162;2023-04-16T13:01:12;92106.88;;;9.20;100.00
7660;BME280;3872;47.902;8.162;2023-04-16T13:03:39;92110.00;;;8.98;100.00
7660;BME280;3872;47.902;8.162;2023-04-16T13:06:06;92114.84;;;7.74;100.00
7660;BME280;3872;47.902;8.162;2023-04-16T13:08:33;92112.81;;;8.05;100.00
7660;BME280;3872;47.902;8.162;2023-04-16T13:11:00;92117.44;;;8.18;100.00
7660;BME280;3872;47.902;8.162;2023-04-16T13:13:26;92103.75;;;8.60;100.00
7660;BME280;3872;47.902;8.162;2023-04-16T13:15:53;92101.78;;;8.47;100.00
7660;BME280;3872;47.902;8.162;2023-04-16T13:18:20;92105.59;;;9.41;100.00
7660;BME280;3872;47.902;8.162;2023-04-16T13:20:47;92104.09;;;9.35;100.00
7660;BME280;3872;47.902;8.162;2023-04-16T13:23:14;92109.06;;;9.13;100.00